createdAt,value
2018-07-16T00:00:26.496Z,15.30
2018-07-16T00:00:59.466Z,15.30
2018-07-16T00:01:32.436Z,15.70
2018-07-16T00:02:05.972Z,16.20
2018-07-16T00:02:39.012Z,15.80
2018-07-16T00:03:12.053Z,15.80
2018-07-16T00:03:45.088Z,15.70
2018-07-16T00:04:18.051Z,15.80
2018-07-16T00:04:51.004Z,15.90
2018-07-16T00:05:24.073Z,16.20
2018-07-16T00:05:57.082Z,16.20
2018-07-16T00:06:30.024Z,16.60
2018-07-16T00:07:03.020Z,17.10
2018-07-16T00:07:36.033Z,17.00
2018-07-16T00:08:09.086Z,16.80
2018-07-16T00:08:42.138Z,17.00
2018-07-16T00:09:15.141Z,17.60
2018-07-16T00:09:48.395Z,18.50
2018-07-16T00:10:21.353Z,18.00
2018-07-16T00:10:54.353Z,17.40
2018-07-16T00:11:27.397Z,17.70
2018-07-16T00:12:00.376Z,17.90
2018-07-16T00:12:33.478Z,18.30
2018-07-16T00:13:06.484Z,18.30
2018-07-16T00:13:39.488Z,17.70
2018-07-16T00:14:12.433Z,17.60
2018-07-16T00:14:45.704Z,17.50
2018-07-16T00:20:10.823Z,18.20
2018-07-16T00:20:43.849Z,19.90
2018-07-16T00:21:16.863Z,20.20
2018-07-16T00:21:49.852Z,19.60
2018-07-16T00:22:22.821Z,19.40
2018-07-16T00:22:55.810Z,19.20
2018-07-16T00:23:28.804Z,19.00
2018-07-16T00:24:01.831Z,19.20
2018-07-16T00:24:34.875Z,19.50
2018-07-16T00:26:37.498Z,19.60
2018-07-16T00:27:10.536Z,19.60
2018-07-16T00:27:43.503Z,20.20
2018-07-16T00:28:16.521Z,20.20
2018-07-16T00:28:49.515Z,20.60
2018-07-16T00:29:22.589Z,20.70
2018-07-16T00:29:55.621Z,20.70
2018-07-16T00:30:28.606Z,20.70
2018-07-16T00:31:01.607Z,20.80
2018-07-16T00:31:34.616Z,21.00
2018-07-16T00:32:07.647Z,21.60
2018-07-16T00:32:40.663Z,21.10
2018-07-16T00:33:13.611Z,20.60
2018-07-16T00:33:46.588Z,20.30
2018-07-16T00:34:19.536Z,20.40
2018-07-16T00:34:52.513Z,20.40
2018-07-16T00:36:55.038Z,21.30
2018-07-16T00:37:28.008Z,21.80
2018-07-16T00:38:01.014Z,22.30
2018-07-16T00:38:34.017Z,22.00
2018-07-16T00:39:07.055Z,22.20
2018-07-16T00:39:40.020Z,22.00
2018-07-16T00:40:13.018Z,22.00
2018-07-16T00:40:46.005Z,22.50
2018-07-16T00:41:18.943Z,23.00
2018-07-16T00:41:51.945Z,23.10
2018-07-16T00:42:24.926Z,23.40
2018-07-16T00:42:57.904Z,24.10
2018-07-16T00:43:30.873Z,24.40
2018-07-16T00:44:03.928Z,25.20
2018-07-16T00:44:37.008Z,24.70
2018-07-16T00:45:10.004Z,24.40
2018-07-16T00:45:43.687Z,25.50
2018-07-16T00:46:16.630Z,25.20
2018-07-16T00:46:49.614Z,25.00
2018-07-16T00:47:22.634Z,25.10
2018-07-16T00:47:55.625Z,25.50
2018-07-16T00:48:28.619Z,25.50
2018-07-16T00:49:01.896Z,25.40
2018-07-16T00:49:35.060Z,25.20
2018-07-16T00:50:08.089Z,26.00
2018-07-16T00:50:41.155Z,25.90
2018-07-16T00:51:14.097Z,25.60
2018-07-16T00:51:47.058Z,25.60
2018-07-16T00:52:20.119Z,25.80
2018-07-16T00:52:53.099Z,26.30
2018-07-16T00:53:26.112Z,26.60
2018-07-16T00:53:59.290Z,26.50
2018-07-16T00:54:32.315Z,26.30
2018-07-16T00:55:05.513Z,27.20
2018-07-16T00:55:38.526Z,28.30
2018-07-16T00:56:11.529Z,28.40
2018-07-16T00:56:44.534Z,28.00
2018-07-16T00:57:17.555Z,28.00
2018-07-16T00:57:50.551Z,27.60
2018-07-16T00:58:23.524Z,28.30
2018-07-16T00:58:56.638Z,28.20
2018-07-16T00:59:29.641Z,27.90
2018-07-16T01:00:02.685Z,27.60
2018-07-16T01:00:35.703Z,27.60
2018-07-16T01:01:08.699Z,27.50
2018-07-16T01:01:41.736Z,27.80
2018-07-16T01:02:14.785Z,28.10
2018-07-16T01:02:47.800Z,28.40
2018-07-16T01:03:20.881Z,28.80
2018-07-16T01:03:53.873Z,28.40
2018-07-16T01:04:26.851Z,29.10
2018-07-16T01:04:59.815Z,29.50
2018-07-16T01:05:32.787Z,29.40
2018-07-16T01:06:05.813Z,29.30
2018-07-16T01:06:38.799Z,30.10
2018-07-16T01:07:11.807Z,30.00
2018-07-16T01:07:44.776Z,30.40
2018-07-16T01:08:17.855Z,30.80
2018-07-16T01:08:50.835Z,30.90
2018-07-16T01:09:23.845Z,30.50
2018-07-16T01:09:56.817Z,30.30
2018-07-16T01:10:29.811Z,30.40
2018-07-16T01:11:02.803Z,30.30
2018-07-16T01:11:35.783Z,30.40
2018-07-16T01:12:09.247Z,30.70
2018-07-16T01:12:42.228Z,30.70
2018-07-16T01:13:15.196Z,30.90
2018-07-16T01:13:48.895Z,31.30
2018-07-16T01:14:21.901Z,32.60
2018-07-16T01:14:54.985Z,33.50
2018-07-16T01:16:57.527Z,33.30
2018-07-16T01:17:30.535Z,33.20
2018-07-16T01:18:03.513Z,34.20
2018-07-16T01:18:36.548Z,35.00
2018-07-16T01:19:09.521Z,34.90
2018-07-16T01:19:42.514Z,34.60
2018-07-16T01:20:15.569Z,34.40
2018-07-16T01:20:48.542Z,35.10
2018-07-16T01:21:21.538Z,34.70
2018-07-16T01:21:54.514Z,34.50
2018-07-16T01:22:27.493Z,34.70
2018-07-16T01:23:00.459Z,34.30
2018-07-16T01:23:33.486Z,34.40
2018-07-16T01:24:06.537Z,34.60
2018-07-16T01:24:39.499Z,34.70
2018-07-16T01:25:12.487Z,34.60
2018-07-16T01:25:45.727Z,35.50
2018-07-16T01:26:18.768Z,37.10
2018-07-16T01:26:51.787Z,38.20
2018-07-16T01:27:24.797Z,37.50
2018-07-16T01:27:57.795Z,36.80
2018-07-16T01:28:30.781Z,36.30
2018-07-16T01:29:03.796Z,36.50
2018-07-16T01:29:36.824Z,37.30
2018-07-16T01:30:09.824Z,37.30
2018-07-16T01:30:42.781Z,37.20
2018-07-16T01:31:15.941Z,36.60
2018-07-16T01:31:48.962Z,36.80
2018-07-16T01:32:21.916Z,36.40
2018-07-16T01:32:54.941Z,36.10
2018-07-16T01:33:27.988Z,35.70
2018-07-16T01:34:00.956Z,35.70
2018-07-16T01:34:34.597Z,35.80
2018-07-16T01:35:07.611Z,35.60
2018-07-16T01:35:42.512Z,35.50
2018-07-16T01:36:15.552Z,35.80
2018-07-16T01:36:48.547Z,36.70
2018-07-16T01:37:21.527Z,37.00
2018-07-16T01:37:54.533Z,36.80
2018-07-16T01:38:27.595Z,36.90
2018-07-16T01:39:00.592Z,37.00
2018-07-16T01:39:33.638Z,37.00
2018-07-16T01:40:06.827Z,37.80
2018-07-16T01:40:40.652Z,37.30
2018-07-16T01:41:13.680Z,37.30
2018-07-16T01:41:46.674Z,37.40
2018-07-16T01:42:19.684Z,37.80
2018-07-16T01:42:52.634Z,37.70
2018-07-16T01:43:25.648Z,37.50
2018-07-16T01:43:58.612Z,37.10
2018-07-16T01:44:31.582Z,37.10
2018-07-16T01:45:04.976Z,37.40
2018-07-16T01:45:37.948Z,37.30
2018-07-16T01:46:10.918Z,37.10
2018-07-16T01:46:43.922Z,38.10
2018-07-16T01:47:16.925Z,37.90
2018-07-16T01:47:49.951Z,37.60
2018-07-16T01:48:22.946Z,37.30
2018-07-16T01:48:55.931Z,36.90
2018-07-16T01:49:28.958Z,36.30
2018-07-16T01:50:01.934Z,36.00
2018-07-16T01:50:34.950Z,36.10
2018-07-16T01:51:07.987Z,36.40
2018-07-16T01:51:40.996Z,36.50
2018-07-16T01:52:13.987Z,35.90
2018-07-16T01:52:46.948Z,35.60
2018-07-16T01:53:20.033Z,35.60
2018-07-16T01:53:53.043Z,35.70
2018-07-16T01:54:26.094Z,36.00
2018-07-16T01:54:59.086Z,36.10
2018-07-16T01:55:32.103Z,36.10
2018-07-16T01:56:05.127Z,36.30
2018-07-16T01:56:38.076Z,36.60
2018-07-16T01:57:11.068Z,37.30
2018-07-16T01:57:44.072Z,37.40
2018-07-16T01:58:17.060Z,37.00
2018-07-16T01:58:50.094Z,36.70
2018-07-16T01:59:23.123Z,36.40
2018-07-16T01:59:56.115Z,36.30
2018-07-16T02:00:29.118Z,36.30
2018-07-16T02:01:03.012Z,36.40
2018-07-16T02:01:36.024Z,36.50
2018-07-16T02:02:09.006Z,36.40
2018-07-16T02:02:42.027Z,36.30
2018-07-16T02:03:15.022Z,36.60
2018-07-16T02:03:47.994Z,36.60
2018-07-16T02:04:20.967Z,36.80
2018-07-16T02:04:53.934Z,37.20
2018-07-16T02:05:26.892Z,36.90
2018-07-16T02:05:59.908Z,36.60
2018-07-16T02:06:32.894Z,36.40
2018-07-16T02:07:05.905Z,36.40
2018-07-16T02:07:38.989Z,36.30
2018-07-16T02:08:11.997Z,36.90
2018-07-16T02:08:45.020Z,36.90
2018-07-16T02:09:18.056Z,36.30
2018-07-16T02:09:51.023Z,35.80
2018-07-16T02:10:23.989Z,36.30
2018-07-16T02:10:57.240Z,36.20
2018-07-16T02:11:30.276Z,35.70
2018-07-16T02:12:03.279Z,36.00
2018-07-16T02:12:36.321Z,35.80
2018-07-16T02:13:09.292Z,35.00
2018-07-16T02:13:42.267Z,34.60
2018-07-16T02:14:15.261Z,34.80
2018-07-16T02:14:48.199Z,34.80
2018-07-16T02:15:21.215Z,34.80
2018-07-16T02:15:54.216Z,35.30
2018-07-16T02:16:27.529Z,34.90
2018-07-16T02:17:00.480Z,34.70
2018-07-16T02:17:33.695Z,34.80
2018-07-16T02:18:06.736Z,35.10
2018-07-16T02:18:39.727Z,36.00
2018-07-16T02:19:12.756Z,36.30
2018-07-16T02:19:45.731Z,36.40
2018-07-16T02:20:18.780Z,36.30
2018-07-16T02:20:51.793Z,36.20
2018-07-16T02:21:24.808Z,36.60
2018-07-16T02:21:57.865Z,36.70
2018-07-16T02:22:30.855Z,36.60
2018-07-16T02:23:03.851Z,36.40
2018-07-16T02:23:36.814Z,36.30
2018-07-16T02:24:09.777Z,36.10
2018-07-16T02:24:43.440Z,36.40
2018-07-16T02:25:16.416Z,36.30
2018-07-16T02:25:49.384Z,36.00
2018-07-16T02:26:22.370Z,35.80
2018-07-16T02:26:55.371Z,36.80
2018-07-16T02:27:28.393Z,36.80
2018-07-16T02:28:01.403Z,36.90
2018-07-16T02:28:34.414Z,36.80
2018-07-16T02:29:07.401Z,36.50
2018-07-16T02:29:40.413Z,36.20
2018-07-16T02:30:13.407Z,36.60
2018-07-16T02:30:46.399Z,36.80
2018-07-16T02:31:19.407Z,36.40
2018-07-16T02:31:52.382Z,36.20
2018-07-16T02:32:25.519Z,36.60
2018-07-16T02:32:58.519Z,36.70
2018-07-16T02:33:31.573Z,36.60
2018-07-16T02:34:04.583Z,36.80
2018-07-16T02:34:37.563Z,36.50
2018-07-16T02:35:10.547Z,36.90
2018-07-16T02:35:43.529Z,36.50
2018-07-16T02:36:16.519Z,36.00
2018-07-16T02:36:49.495Z,35.60
2018-07-16T02:37:22.478Z,35.70
2018-07-16T02:37:55.485Z,36.10
2018-07-16T02:40:05.595Z,35.90
2018-07-16T02:40:38.644Z,36.00
2018-07-16T02:41:11.668Z,35.90
2018-07-16T02:41:44.639Z,35.90
2018-07-16T02:42:17.596Z,36.10
2018-07-16T02:42:50.631Z,35.40
2018-07-16T02:43:23.589Z,35.70
2018-07-16T02:43:56.537Z,35.10
2018-07-16T02:44:29.660Z,34.90
2018-07-16T02:45:02.685Z,34.90
2018-07-16T02:45:35.671Z,34.50
2018-07-16T02:46:08.816Z,34.40
2018-07-16T02:46:41.807Z,33.80
2018-07-16T02:47:14.855Z,34.20
2018-07-16T02:47:47.904Z,33.80
2018-07-16T02:48:20.961Z,33.20
2018-07-16T02:48:53.975Z,33.10
2018-07-16T02:49:26.966Z,32.70
2018-07-16T02:50:00.019Z,32.40
2018-07-16T02:50:33.007Z,32.40
2018-07-16T02:51:06.067Z,32.10
2018-07-16T02:51:39.159Z,32.30
2018-07-16T02:52:12.165Z,32.10
2018-07-16T02:52:45.151Z,31.80
2018-07-16T02:53:18.185Z,31.20
2018-07-16T02:53:51.168Z,31.00
2018-07-16T02:54:24.139Z,31.00
2018-07-16T02:54:57.149Z,31.50
2018-07-16T02:55:30.171Z,31.10
2018-07-16T02:56:03.199Z,31.00
2018-07-16T02:56:36.211Z,31.30
2018-07-16T02:57:09.269Z,31.60
2018-07-16T02:57:42.278Z,31.50
2018-07-16T02:58:15.273Z,31.20
2018-07-16T02:58:48.291Z,31.00
2018-07-16T02:59:21.354Z,31.10
2018-07-16T02:59:54.291Z,31.10
2018-07-16T03:00:27.289Z,31.00
2018-07-16T03:01:00.321Z,30.70
2018-07-16T03:01:33.319Z,30.90
2018-07-16T03:02:06.327Z,30.70
2018-07-16T03:02:39.793Z,31.00
2018-07-16T03:03:12.868Z,31.30
2018-07-16T03:03:45.891Z,31.00
2018-07-16T03:04:18.865Z,30.60
2018-07-16T03:04:51.879Z,30.40
2018-07-16T03:05:24.875Z,30.00
2018-07-16T03:05:57.851Z,29.50
2018-07-16T03:06:30.835Z,29.80
2018-07-16T03:07:03.910Z,29.80
2018-07-16T03:07:36.904Z,29.80
2018-07-16T03:08:09.949Z,29.80
2018-07-16T03:08:42.913Z,29.50
2018-07-16T03:09:15.931Z,29.50
2018-07-16T03:09:48.904Z,29.20
2018-07-16T03:10:21.906Z,28.80
2018-07-16T03:10:54.894Z,28.70
2018-07-16T03:11:27.936Z,29.10
2018-07-16T03:12:00.953Z,29.10
2018-07-16T03:12:33.985Z,29.30
2018-07-16T03:13:06.991Z,29.70
2018-07-16T03:13:40.016Z,29.90
2018-07-16T03:14:13.003Z,29.90
2018-07-16T03:14:45.992Z,29.70
2018-07-16T03:15:18.968Z,29.50
2018-07-16T03:15:51.988Z,30.00
2018-07-16T03:16:25.102Z,31.40
2018-07-16T03:16:58.099Z,31.20
2018-07-16T03:17:31.177Z,30.60
2018-07-16T03:18:04.294Z,30.60
2018-07-16T03:18:37.237Z,30.80
2018-07-16T03:19:10.226Z,30.60
2018-07-16T03:19:43.252Z,30.60
2018-07-16T03:20:16.264Z,30.50
2018-07-16T03:20:49.272Z,30.40
2018-07-16T03:21:22.274Z,31.40
2018-07-16T03:21:55.344Z,31.60
2018-07-16T03:22:28.427Z,31.30
2018-07-16T03:23:01.437Z,31.30
2018-07-16T03:23:34.491Z,31.30
2018-07-16T03:24:07.538Z,32.40
2018-07-16T03:24:40.523Z,32.10
2018-07-16T03:25:13.545Z,31.90
2018-07-16T03:25:46.551Z,31.80
2018-07-16T03:26:19.543Z,31.70
2018-07-16T03:26:52.533Z,31.60
2018-07-16T03:27:25.629Z,31.60
2018-07-16T03:27:58.657Z,31.60
2018-07-16T03:28:31.681Z,31.60
2018-07-16T03:29:04.671Z,32.00
2018-07-16T03:29:37.726Z,32.30
2018-07-16T03:30:20.777Z,32.30
2018-07-16T03:31:40.868Z,32.80
2018-07-16T03:32:13.863Z,33.70
2018-07-16T03:32:46.881Z,34.10
2018-07-16T03:33:19.880Z,33.80
2018-07-16T03:33:52.863Z,33.80
2018-07-16T03:34:25.861Z,33.50
2018-07-16T03:34:59.230Z,33.80
2018-07-16T03:35:32.237Z,34.00
2018-07-16T03:36:05.303Z,34.20
2018-07-16T03:36:38.317Z,34.10
2018-07-16T03:37:11.309Z,34.30
2018-07-16T03:37:44.298Z,34.10
2018-07-16T03:38:17.387Z,34.00
2018-07-16T03:38:50.380Z,34.30
2018-07-16T03:39:23.403Z,34.30
2018-07-16T03:39:56.431Z,34.30
2018-07-16T03:40:29.445Z,34.00
2018-07-16T03:41:02.631Z,34.20
2018-07-16T03:41:35.678Z,34.60
2018-07-16T03:42:08.693Z,34.60
2018-07-16T03:42:41.777Z,34.50
2018-07-16T03:43:14.853Z,34.70
2018-07-16T03:43:47.803Z,34.80
2018-07-16T03:44:21.172Z,34.90
2018-07-16T03:44:54.175Z,34.80
2018-07-16T03:45:27.175Z,36.30
2018-07-16T03:46:00.247Z,36.70
2018-07-16T03:46:33.401Z,36.70
2018-07-16T03:47:06.403Z,36.50
2018-07-16T03:47:39.383Z,37.10
2018-07-16T03:48:12.386Z,36.70
2018-07-16T03:48:45.413Z,36.50
2018-07-16T03:49:18.439Z,36.60
2018-07-16T03:49:51.457Z,36.40
2018-07-16T03:50:24.533Z,36.30
2018-07-16T03:50:57.544Z,35.90
2018-07-16T03:51:30.526Z,35.60
2018-07-16T03:52:03.576Z,35.30
2018-07-16T03:52:36.568Z,35.30
2018-07-16T03:53:09.551Z,35.30
2018-07-16T03:53:42.538Z,35.20
2018-07-16T03:54:15.626Z,35.30
2018-07-16T03:54:48.615Z,36.80
2018-07-16T03:55:21.618Z,36.90
2018-07-16T03:55:54.667Z,37.20
2018-07-16T03:56:27.641Z,37.50
2018-07-16T03:57:00.699Z,36.90
2018-07-16T03:57:33.705Z,37.00
2018-07-16T03:58:06.787Z,36.70
2018-07-16T03:58:39.810Z,36.50
2018-07-16T03:59:12.886Z,36.40
2018-07-16T03:59:45.879Z,36.00
2018-07-16T04:00:18.871Z,35.60
2018-07-16T04:00:51.886Z,35.40
2018-07-16T04:01:24.927Z,35.30
2018-07-16T04:01:57.971Z,35.70
2018-07-16T04:02:31.011Z,35.30
2018-07-16T04:03:04.199Z,35.50
2018-07-16T04:03:37.225Z,35.30
2018-07-16T04:04:10.274Z,35.10
2018-07-16T04:04:43.301Z,35.30
2018-07-16T04:05:16.303Z,35.00
2018-07-16T04:05:49.287Z,34.90
2018-07-16T04:06:22.264Z,35.00
2018-07-16T04:06:55.293Z,34.80
2018-07-16T04:07:28.476Z,35.00
2018-07-16T04:08:01.465Z,35.30
2018-07-16T04:08:34.475Z,35.20
2018-07-16T04:09:07.787Z,34.90
2018-07-16T04:09:40.762Z,34.60
2018-07-16T04:10:13.782Z,34.70
2018-07-16T04:10:46.815Z,34.70
2018-07-16T04:11:19.829Z,35.00
2018-07-16T04:11:53.069Z,34.70
2018-07-16T04:12:26.125Z,34.30
2018-07-16T04:12:59.111Z,34.20
2018-07-16T04:13:32.141Z,34.00
2018-07-16T04:14:05.145Z,34.10
2018-07-16T04:14:38.116Z,34.00
2018-07-16T04:15:11.070Z,33.70
2018-07-16T04:15:44.063Z,33.60
2018-07-16T04:16:17.067Z,33.40
2018-07-16T04:16:50.051Z,33.30
2018-07-16T04:17:23.147Z,33.00
2018-07-16T04:17:56.189Z,33.00
2018-07-16T04:18:29.195Z,33.10
2018-07-16T04:19:02.199Z,32.90
2018-07-16T04:19:35.183Z,32.90
2018-07-16T04:20:08.575Z,32.80
2018-07-16T04:20:41.590Z,32.80
2018-07-16T04:21:14.585Z,32.60
2018-07-16T04:21:47.557Z,32.50
2018-07-16T04:22:20.535Z,32.20
2018-07-16T04:22:53.533Z,32.10
2018-07-16T04:23:26.563Z,32.00
2018-07-16T04:23:59.625Z,32.30
2018-07-16T04:24:32.639Z,31.90
2018-07-16T04:25:05.675Z,31.50
2018-07-16T04:25:38.937Z,31.20
2018-07-16T04:26:11.963Z,31.20
2018-07-16T04:26:44.953Z,30.70
2018-07-16T04:27:17.975Z,30.40
2018-07-16T04:27:51.434Z,29.90
2018-07-16T04:28:24.392Z,29.80
2018-07-16T04:28:57.378Z,29.80
2018-07-16T04:29:30.349Z,29.40
2018-07-16T04:30:03.421Z,29.10
2018-07-16T04:30:36.379Z,28.90
2018-07-16T04:31:09.403Z,28.70
2018-07-16T04:31:42.395Z,28.50
2018-07-16T04:32:15.410Z,28.30
2018-07-16T04:32:48.378Z,28.10
2018-07-16T04:33:21.395Z,27.90
2018-07-16T04:33:54.425Z,27.70
2018-07-16T04:34:27.403Z,27.60
2018-07-16T04:35:00.403Z,27.30
2018-07-16T04:35:33.429Z,27.30
2018-07-16T04:36:06.455Z,27.20
2018-07-16T04:36:39.483Z,27.10
2018-07-16T04:37:12.483Z,27.20
2018-07-16T04:37:45.490Z,27.10
2018-07-16T04:38:18.477Z,26.70
2018-07-16T04:38:51.493Z,26.50
2018-07-16T04:39:24.470Z,26.00
2018-07-16T04:39:57.523Z,25.60
2018-07-16T04:40:30.499Z,25.30
2018-07-16T04:41:03.505Z,25.20
2018-07-16T04:41:36.495Z,24.90
2018-07-16T04:42:09.679Z,24.60
2018-07-16T04:42:42.697Z,24.40
2018-07-16T04:43:15.676Z,23.90
2018-07-16T04:43:48.645Z,23.50
2018-07-16T04:44:21.700Z,23.20
2018-07-16T04:44:54.690Z,23.40
2018-07-16T04:45:27.698Z,23.00
2018-07-16T04:46:00.722Z,22.60
2018-07-16T04:46:33.692Z,22.40
2018-07-16T04:47:06.742Z,22.20
2018-07-16T04:47:39.789Z,22.10
2018-07-16T04:48:12.822Z,21.70
2018-07-16T04:48:45.836Z,21.20
2018-07-16T04:49:18.809Z,21.00
2018-07-16T04:49:51.984Z,20.70
2018-07-16T04:50:24.998Z,20.80
2018-07-16T04:50:58.038Z,20.40
2018-07-16T04:51:31.026Z,20.20
2018-07-16T04:52:04.119Z,19.80
2018-07-16T04:52:37.112Z,19.20
2018-07-16T04:53:10.156Z,19.20
2018-07-16T04:53:43.326Z,18.40
2018-07-16T04:54:16.274Z,18.40
2018-07-16T04:54:49.278Z,18.00
2018-07-16T04:55:22.291Z,17.80
2018-07-16T04:55:55.286Z,17.60
2018-07-16T04:56:28.279Z,17.40
2018-07-16T04:57:01.262Z,16.60
2018-07-16T04:57:34.284Z,16.40
2018-07-16T04:58:07.287Z,15.80
2018-07-16T04:58:40.238Z,15.50
2018-07-16T04:59:13.209Z,15.20
2018-07-16T04:59:46.305Z,14.50
2018-07-16T05:00:19.310Z,13.80
2018-07-16T05:00:52.332Z,13.40
2018-07-16T05:01:25.312Z,13.00
2018-07-16T05:01:58.298Z,12.80
2018-07-16T05:02:31.288Z,12.60
2018-07-16T05:03:04.535Z,12.40
2018-07-16T05:03:37.541Z,12.40
2018-07-16T05:04:10.712Z,11.60
2018-07-16T05:04:43.722Z,11.00
2018-07-16T05:05:16.699Z,10.70
2018-07-16T05:05:49.663Z,9.90
2018-07-16T05:06:22.820Z,9.70
2018-07-16T05:06:55.836Z,9.70
2018-07-16T05:07:28.828Z,9.70
2018-07-16T05:08:01.798Z,9.20
2018-07-16T05:08:34.804Z,7.80
2018-07-16T05:09:07.846Z,7.40
2018-07-16T05:09:40.810Z,7.50
2018-07-16T05:10:13.794Z,6.60
2018-07-16T05:10:46.752Z,6.10
2018-07-16T05:11:19.714Z,6.00
2018-07-16T05:11:52.666Z,6.00
2018-07-16T05:12:25.704Z,5.40
2018-07-16T05:12:58.698Z,5.00
2018-07-16T05:13:31.642Z,5.00
2018-07-16T05:14:04.668Z,5.00
2018-07-16T05:14:37.676Z,5.00
2018-07-16T05:15:10.701Z,5.00
2018-07-16T05:15:43.694Z,5.00
2018-07-16T05:16:16.875Z,5.00
2018-07-16T05:16:49.826Z,5.00
2018-07-16T05:17:22.846Z,5.00
2018-07-16T05:17:55.847Z,5.00
2018-07-16T05:18:29.136Z,5.00
2018-07-16T05:19:01.851Z,5.00
2018-07-16T05:19:34.818Z,5.00
2018-07-16T05:20:07.802Z,5.00
2018-07-16T05:20:40.844Z,5.00
2018-07-16T05:21:13.823Z,5.00
2018-07-16T05:21:47.532Z,5.00
2018-07-16T05:22:20.519Z,5.00
2018-07-16T05:22:53.514Z,5.00
2018-07-16T05:23:26.496Z,5.00
2018-07-16T05:23:59.564Z,5.00
2018-07-16T05:24:32.600Z,5.00
2018-07-16T05:25:05.631Z,5.00
2018-07-16T05:25:38.625Z,5.00
2018-07-16T05:26:11.616Z,5.00
2018-07-16T05:26:44.583Z,5.00
2018-07-16T05:27:17.640Z,5.00
2018-07-16T05:27:50.632Z,5.00
2018-07-16T05:28:23.628Z,5.00
2018-07-16T05:28:56.622Z,5.00
2018-07-16T05:29:29.615Z,5.00
2018-07-16T05:30:02.627Z,5.00
2018-07-16T05:30:35.652Z,5.00
2018-07-16T05:31:08.660Z,5.00
2018-07-16T05:31:41.648Z,5.00
2018-07-16T05:32:14.834Z,5.00
2018-07-16T05:32:47.809Z,5.00
2018-07-16T05:33:20.646Z,5.00
2018-07-16T05:33:53.669Z,5.00
2018-07-16T05:34:26.690Z,5.00
2018-07-16T05:34:59.722Z,5.00
2018-07-16T05:35:32.734Z,5.00
2018-07-16T05:36:05.747Z,5.00
2018-07-16T05:36:38.770Z,5.00
2018-07-16T05:37:11.762Z,5.00
2018-07-16T05:37:44.794Z,5.00
2018-07-16T05:43:10.569Z,5.00
2018-07-16T05:43:43.540Z,5.00
2018-07-16T05:44:16.546Z,5.00
2018-07-16T05:44:49.518Z,5.00
2018-07-16T05:45:22.532Z,5.00
2018-07-16T05:45:55.534Z,5.00
2018-07-16T05:46:28.495Z,5.00
2018-07-16T05:47:01.533Z,5.00
2018-07-16T05:47:34.588Z,5.00
2018-07-16T05:48:07.634Z,5.00
2018-07-16T05:48:40.654Z,5.00
2018-07-16T05:49:13.632Z,5.00
2018-07-16T05:49:46.622Z,5.00
2018-07-16T05:50:19.618Z,5.00
2018-07-16T05:50:52.615Z,5.00
2018-07-16T05:51:25.644Z,5.00
2018-07-16T05:51:58.634Z,5.00
2018-07-16T05:52:31.593Z,5.00
2018-07-16T05:53:04.861Z,5.00
2018-07-16T05:53:37.976Z,5.00
2018-07-16T05:54:10.986Z,5.00
2018-07-16T05:54:43.962Z,5.00
2018-07-16T05:55:17.001Z,5.00
2018-07-16T05:55:50.009Z,5.00
2018-07-16T05:56:22.961Z,5.00
2018-07-16T05:56:55.950Z,5.00
2018-07-16T05:57:28.989Z,5.00
2018-07-16T05:58:01.959Z,5.00
2018-07-16T06:00:04.527Z,5.00
2018-07-16T06:00:37.529Z,5.00
2018-07-16T06:01:10.575Z,5.00
2018-07-16T06:01:43.551Z,5.00
2018-07-16T06:02:16.581Z,5.00
2018-07-16T06:02:49.714Z,5.00
2018-07-16T06:03:22.784Z,5.00
2018-07-16T06:03:55.816Z,5.00
2018-07-16T06:04:28.836Z,5.00
2018-07-16T06:05:02.131Z,5.00
2018-07-16T06:05:35.144Z,5.00
2018-07-16T06:06:08.158Z,5.00
2018-07-16T06:06:41.135Z,5.00
2018-07-16T06:07:14.159Z,5.00
2018-07-16T06:07:47.145Z,5.00
2018-07-16T06:08:20.150Z,5.00
2018-07-16T06:08:53.245Z,5.00
2018-07-16T06:09:26.161Z,5.00
2018-07-16T06:09:59.208Z,5.00
2018-07-16T06:10:32.164Z,5.00
2018-07-16T06:11:05.176Z,5.00
2018-07-16T06:11:38.243Z,5.00
2018-07-16T06:12:11.259Z,5.00
2018-07-16T06:12:44.274Z,5.00
2018-07-16T06:13:17.332Z,5.00
2018-07-16T06:13:50.348Z,5.00
2018-07-16T06:14:23.468Z,5.00
2018-07-16T06:14:56.493Z,5.00
2018-07-16T06:15:29.517Z,5.00
2018-07-16T06:16:02.519Z,5.00
2018-07-16T06:16:35.528Z,5.00
2018-07-16T06:17:08.536Z,5.00
2018-07-16T06:17:41.554Z,5.00
2018-07-16T06:18:14.528Z,5.00
2018-07-16T06:18:47.464Z,5.00
2018-07-16T06:19:20.411Z,5.00
2018-07-16T06:19:53.385Z,5.00
2018-07-16T06:20:26.467Z,5.00
2018-07-16T06:20:59.420Z,5.00
2018-07-16T06:21:32.403Z,5.00
2018-07-16T06:22:05.625Z,5.00
2018-07-16T06:22:38.905Z,5.00
2018-07-16T06:23:11.899Z,5.00
2018-07-16T06:23:44.898Z,5.00
2018-07-16T06:24:17.936Z,5.00
2018-07-16T06:24:50.912Z,5.00
2018-07-16T06:25:23.935Z,5.00
2018-07-16T06:25:56.931Z,5.00
2018-07-16T06:26:29.925Z,5.00
2018-07-16T06:27:02.967Z,5.00
2018-07-16T06:27:36.037Z,5.00
2018-07-16T06:28:09.015Z,5.00
2018-07-16T06:28:42.011Z,5.00
2018-07-16T06:29:15.348Z,5.00
2018-07-16T06:29:48.408Z,5.00
2018-07-16T06:30:21.378Z,5.00
2018-07-16T06:30:54.411Z,5.00
2018-07-16T06:31:27.399Z,5.00
2018-07-16T06:32:00.368Z,5.00
2018-07-16T06:32:33.457Z,5.00
2018-07-16T06:33:06.433Z,5.00
2018-07-16T06:33:39.413Z,5.00
2018-07-16T06:34:12.391Z,5.00
2018-07-16T06:34:45.361Z,5.00
2018-07-16T06:35:18.450Z,5.00
2018-07-16T06:35:51.455Z,5.00
2018-07-16T06:37:28.653Z,5.00
2018-07-16T06:38:01.605Z,5.00
2018-07-16T06:38:34.585Z,5.00
2018-07-16T06:39:07.619Z,5.00
2018-07-16T06:39:40.675Z,5.00
2018-07-16T06:40:13.698Z,5.00
2018-07-16T06:40:46.691Z,5.00
2018-07-16T06:41:19.858Z,5.00
2018-07-16T06:41:52.595Z,5.00
2018-07-16T06:42:25.562Z,5.00
2018-07-16T06:42:58.519Z,5.00
2018-07-16T06:43:31.669Z,5.00
2018-07-16T06:44:04.687Z,5.00
2018-07-16T06:44:37.705Z,5.00
2018-07-16T06:45:10.723Z,5.00
2018-07-16T06:45:43.746Z,5.00
2018-07-16T06:46:16.912Z,5.00
2018-07-16T06:46:49.913Z,5.00
2018-07-16T06:47:22.889Z,5.00
2018-07-16T06:47:55.976Z,5.00
2018-07-16T06:48:28.865Z,5.00
2018-07-16T06:49:01.867Z,5.00
2018-07-16T06:49:35.275Z,5.00
2018-07-16T06:50:08.248Z,5.00
2018-07-16T06:50:41.244Z,5.00
2018-07-16T06:51:14.269Z,5.00
2018-07-16T06:51:47.247Z,5.00
2018-07-16T06:52:20.228Z,5.00
2018-07-16T06:52:53.226Z,5.00
2018-07-16T06:53:26.205Z,5.00
2018-07-16T06:53:59.215Z,5.00
2018-07-16T06:54:32.254Z,5.00
2018-07-16T06:55:06.104Z,5.00
2018-07-16T06:55:39.033Z,5.00
2018-07-16T06:56:12.023Z,5.00
2018-07-16T06:56:44.997Z,5.00
2018-07-16T06:57:18.244Z,5.00
2018-07-16T06:57:51.330Z,5.00
2018-07-16T06:58:24.303Z,5.00
2018-07-16T06:58:57.279Z,5.00
2018-07-16T06:59:30.328Z,5.00
2018-07-16T07:00:03.477Z,5.00
2018-07-16T07:00:36.449Z,5.00
2018-07-16T07:01:09.451Z,5.00
2018-07-16T07:01:42.407Z,5.00
2018-07-16T07:02:15.390Z,5.00
2018-07-16T07:02:48.383Z,5.00
2018-07-16T07:03:21.425Z,5.00
2018-07-16T07:03:54.379Z,5.00
2018-07-16T07:04:27.379Z,5.00
2018-07-16T07:05:00.445Z,5.00
2018-07-16T07:05:33.861Z,5.00
2018-07-16T07:06:06.865Z,5.00
2018-07-16T07:06:39.865Z,5.00
2018-07-16T07:07:12.893Z,5.00
2018-07-16T07:07:45.915Z,5.00
2018-07-16T07:08:18.879Z,5.00
2018-07-16T07:08:51.851Z,5.00
2018-07-16T07:09:24.848Z,5.00
2018-07-16T07:09:57.844Z,5.00
2018-07-16T07:10:30.857Z,5.00
2018-07-16T07:11:03.876Z,5.00
2018-07-16T07:11:36.859Z,5.00
2018-07-16T07:12:09.899Z,5.00
2018-07-16T07:12:42.929Z,5.00
2018-07-16T07:13:15.951Z,5.00
2018-07-16T07:13:48.955Z,5.00
2018-07-16T07:14:22.069Z,5.00
2018-07-16T07:14:55.121Z,5.00
2018-07-16T07:15:28.120Z,5.00
2018-07-16T07:16:01.169Z,5.00
2018-07-16T07:16:34.247Z,5.00
2018-07-16T07:17:07.241Z,5.00
2018-07-16T07:17:40.260Z,5.00
2018-07-16T07:18:13.288Z,5.00
2018-07-16T07:18:46.492Z,5.00
2018-07-16T07:19:19.429Z,5.00
2018-07-16T07:19:52.431Z,5.00
2018-07-16T07:20:25.411Z,5.00
2018-07-16T07:20:58.525Z,5.00
2018-07-16T07:21:31.509Z,5.00
2018-07-16T07:22:04.549Z,5.00
2018-07-16T07:22:37.515Z,5.00
2018-07-16T07:23:10.483Z,5.00
2018-07-16T07:23:43.823Z,5.00
2018-07-16T07:24:16.815Z,5.00
2018-07-16T07:24:49.827Z,5.00
2018-07-16T07:25:22.833Z,5.00
2018-07-16T07:25:55.869Z,5.00
2018-07-16T07:26:28.867Z,5.00
2018-07-16T07:27:01.865Z,5.00
2018-07-16T07:27:34.893Z,5.00
2018-07-16T07:28:07.883Z,5.00
2018-07-16T07:28:40.871Z,5.00
2018-07-16T07:29:13.897Z,5.00